Rochester International Airport Rochester US
ICAO: KRST
IATA: RST
Category: Large
Scheduled Services: Yes

Elevation: 1317 ft
TransAlt. 18000 ft.

Airport Communications:
APP/DEP:119.2
ATIS:120.5
CTAF:118.3
GND:121.9
PRINCETON RDO:122.45
TWR:118.3
UNICOM:122.95

KRST Zoom In..

Runways:

(A) RW 02 length 7301 ft width 150 ft
---- / hdg 25

(B) RW 13 length 9033 ft width 150 ft
ILS 109.10 / hdg 131

(C) RW 20 length 7301 ft width 150 ft
---- / hdg 205

(D) RW 31 length 9033 ft width 150 ft
ILS 108.50 / hdg 311

Location; KRST
Day. 19 / Time. 01.54 Zulu
* Altimeter: 29.77
* Temperature: 12° c. 53.6°f.
* Wind from: 340° Speed 11 kn with Gusts up to 20 kn.
Dewpoint: 02° c.
Visibility: 10 Statute Miles.
Clouds: Broken 8000 ft.
Clouds: Overcast 1000 ft.

KRST 190154Z 34011G20KT 10SM BKN080 OVC100 12/02 A2977 RMK AO2 PK WND 33029/0119 SLP085 T01170022 $

Going to: --> -->


Wind From 340°
Speed 11 kn.

 
 
jpsmedia worldairports.se 2021   terms of use